Time;durP1;ratioP1;P1;durP2;ratioP2;P2;SDS_P1;SDS_P2;PMS_P1;PMS_P2;Temp;Humidity;BMP_temperature;BMP_pressure;BME280_temperature;BME280_humidity;BME280_pressure;Samples;Min_cycle;Max_cycle;Signal;HPM_P1;HPM_P2
2022/12/03 00:02:06;;;;;;;51.47;16.00;;;;;;;0.02;100.00;95474.06;5004653;28;20076;-72
2022/12/03 00:04:31;;;;;;;53.13;16.05;;;;;;;0.07;100.00;95476.03;5001916;28;20480;-73
2022/12/03 00:06:57;;;;;;;52.60;15.43;;;;;;;0.12;100.00;95479.59;5005073;28;20600;-72
2022/12/03 00:09:22;;;;;;;49.58;17.20;;;;;;;0.11;100.00;95472.84;4997782;28;20034;-73
2022/12/03 00:11:48;;;;;;;56.70;16.88;;;;;;;0.10;100.00;95476.44;5011198;28;20033;-72
2022/12/03 00:14:13;;;;;;;54.47;17.52;;;;;;;0.05;100.00;95478.03;5001529;28;20072;-71
2022/12/03 00:16:39;;;;;;;47.80;17.27;;;;;;;-0.01;100.00;95477.06;5002386;28;20049;-72
2022/12/03 00:19:06;;;;;;;45.45;15.27;;;;;;;-0.04;100.00;95474.88;5001864;28;20463;-73
2022/12/03 00:21:32;;;;;;;54.47;16.75;;;;;;;-0.05;100.00;95478.47;5008502;28;20045;-72
2022/12/03 00:23:58;;;;;;;57.65;15.98;;;;;;;-0.11;100.00;95476.69;5006401;28;20495;-72
2022/12/03 00:26:24;;;;;;;54.30;15.40;;;;;;;-0.03;100.00;95476.47;5002120;28;20054;-70
2022/12/03 00:28:49;;;;;;;49.60;15.40;;;;;;;-0.10;100.00;95480.84;5007484;28;20045;-72
2022/12/03 00:31:15;;;;;;;56.30;16.40;;;;;;;-0.16;100.00;95486.84;5009277;28;20061;-72
2022/12/03 00:33:41;;;;;;;48.25;16.60;;;;;;;-0.13;100.00;95482.06;4998027;28;20038;-72
2022/12/03 00:36:07;;;;;;;52.63;16.50;;;;;;;-0.06;100.00;95479.44;5011917;28;20479;-71
2022/12/03 00:38:32;;;;;;;52.45;15.75;;;;;;;-0.18;100.00;95485.25;5010619;28;20045;-72
2022/12/03 00:40:58;;;;;;;51.80;16.20;;;;;;;-0.32;100.00;95478.50;5004021;28;20042;-72
2022/12/03 00:43:23;;;;;;;48.78;15.27;;;;;;;-0.19;100.00;95473.31;4997558;28;20442;-72
2022/12/03 00:45:49;;;;;;;52.38;15.30;;;;;;;-0.24;100.00;95480.88;5009346;28;20045;-71
2022/12/03 00:48:14;;;;;;;46.85;15.18;;;;;;;-0.14;100.00;95474.50;5001545;28;20100;-72
2022/12/03 00:50:40;;;;;;;44.15;14.98;;;;;;;-0.34;100.00;95475.34;5011964;28;20096;-72
2022/12/03 00:53:05;;;;;;;44.72;15.63;;;;;;;-0.25;100.00;95468.94;5012622;28;20499;-72
2022/12/03 00:55:31;;;;;;;50.40;16.58;;;;;;;-0.19;100.00;95478.50;5006493;28;20097;-73
2022/12/03 00:57:56;;;;;;;42.78;14.30;;;;;;;-0.27;100.00;95475.34;5007052;28;20072;-73
2022/12/03 01:00:24;;;;;;;41.70;14.82;;;;;;;-0.31;100.00;95474.94;5001815;28;20059;-72
2022/12/03 01:02:53;;;;;;;46.00;14.43;;;;;;;-0.24;100.00;95470.53;5007781;28;20120;-72
2022/12/03 01:05:19;;;;;;;46.13;14.45;;;;;;;-0.27;100.00;95481.28;5005396;28;20450;-72
2022/12/03 01:07:45;;;;;;;52.35;14.32;;;;;;;-0.30;100.00;95476.53;5001132;28;20445;-73
2022/12/03 01:10:12;;;;;;;55.25;15.75;;;;;;;-0.29;100.00;95487.66;5007751;28;20045;-73
2022/12/03 01:12:37;;;;;;;44.60;13.70;;;;;;;-0.30;100.00;95479.13;5010887;28;20041;-72
2022/12/03 01:15:05;;;;;;;49.50;14.45;;;;;;;-0.29;100.00;95475.50;4995498;28;20126;-73
2022/12/03 01:17:30;;;;;;;41.03;13.75;;;;;;;-0.35;100.00;95484.09;4998241;28;20118;-72
2022/12/03 01:19:57;;;;;;;47.20;14.15;;;;;;;-0.44;100.00;95480.91;5007444;28;20034;-72
2022/12/03 01:22:23;;;;;;;45.60;14.10;;;;;;;-0.43;100.00;95476.53;5003586;28;20117;-72
2022/12/03 01:24:49;;;;;;;52.28;14.82;;;;;;;-0.46;100.00;95482.09;5005349;28;20105;-72
2022/12/03 01:27:15;;;;;;;43.40;13.65;;;;;;;-0.45;100.00;95478.53;4999700;28;20046;-72
2022/12/03 01:29:40;;;;;;;49.67;13.05;;;;;;;-0.58;100.00;95479.34;4995942;28;20043;-72
2022/12/03 01:32:18;;;;;;;52.75;13.80;;;;;;;-0.54;100.00;95480.53;5011075;28;20046;-72
2022/12/03 01:34:50;;;;;;;51.80;14.02;;;;;;;-0.59;100.00;95478.53;5012548;28;20061;-72
2022/12/03 01:37:16;;;;;;;54.63;15.05;;;;;;;-0.65;100.00;95481.91;5015226;28;20050;-72
2022/12/03 01:39:42;;;;;;;43.70;13.68;;;;;;;-0.55;100.00;95495.25;5006867;28;20038;-71
2022/12/03 01:42:14;;;;;;;41.90;12.65;;;;;;;-0.54;100.00;95486.47;5014806;28;20042;-72
2022/12/03 01:44:39;;;;;;;48.15;13.73;;;;;;;-0.57;100.00;95484.31;5003797;28;20060;-72
2022/12/03 01:47:09;;;;;;;31.25;11.65;;;;;;;-0.69;100.00;95488.47;4995881;28;20046;-72
2022/12/03 01:49:37;;;;;;;46.92;14.10;;;;;;;-0.64;100.00;95488.69;4998400;28;20037;-72
2022/12/03 01:52:03;;;;;;;45.33;14.13;;;;;;;-0.62;100.00;95484.09;5003384;28;20042;-72
2022/12/03 01:54:39;;;;;;;41.70;12.90;;;;;;;-0.59;100.00;95483.72;5013019;28;20042;-71
2022/12/03 01:57:17;;;;;;;38.80;11.82;;;;;;;-0.68;100.00;95489.28;5008154;28;20106;-72
2022/12/03 01:59:43;;;;;;;47.88;13.88;;;;;;;-0.65;100.00;95483.72;5002009;28;20058;-70
2022/12/03 02:02:28;;;;;;;42.08;13.15;;;;;;;-0.74;100.00;95476.16;5006142;28;20100;-72
2022/12/03 02:04:54;;;;;;;41.78;14.05;;;;;;;-0.74;100.00;95475.34;5004710;28;20113;-72
2022/12/03 02:07:31;;;;;;;46.65;14.07;;;;;;;-0.69;100.00;95472.97;5008171;28;20084;-72
2022/12/03 02:09:59;;;;;;;40.25;12.80;;;;;;;-0.75;100.00;95478.94;5010868;28;20213;-72
2022/12/03 02:12:50;;;;;;;48.15;13.98;;;;;;;-0.71;100.00;95480.13;5005761;28;20072;-71
2022/12/03 02:15:16;;;;;;;41.08;13.05;;;;;;;-0.65;100.00;95484.50;5007068;28;20046;-74
2022/12/03 02:17:41;;;;;;;45.15;14.57;;;;;;;-0.77;100.00;95486.88;5000602;28;20057;-74
2022/12/03 02:20:09;;;;;;;42.67;13.68;;;;;;;-0.79;100.00;95488.06;5014526;28;20042;-74
2022/12/03 02:22:50;;;;;;;37.70;13.05;;;;;;;-0.68;100.00;95487.47;5012351;28;20053;-73
2022/12/03 02:25:26;;;;;;;43.35;13.27;;;;;;;-0.72;100.00;95483.69;5002902;28;20395;-73
2022/12/03 02:27:53;;;;;;;39.50;13.18;;;;;;;-0.73;100.00;95487.28;5004884;28;20048;-73
2022/12/03 02:30:22;;;;;;;44.88;13.77;;;;;;;-0.83;100.00;95482.50;5006096;28;20046;-72
2022/12/03 02:32:48;;;;;;;48.85;14.23;;;;;;;-0.85;100.00;95481.91;5004458;28;20038;-72
2022/12/03 02:35:17;;;;;;;43.72;13.65;;;;;;;-0.76;100.00;95485.09;5002131;28;20046;-72
2022/12/03 02:37:44;;;;;;;48.75;14.05;;;;;;;-0.85;100.00;95488.88;4998741;28;20050;-73
2022/12/03 02:40:16;;;;;;;50.00;14.75;;;;;;;-0.83;100.00;95476.53;5010644;28;20042;-73
2022/12/03 02:42:44;;;;;;;41.38;12.57;;;;;;;-0.88;100.00;95480.53;5006838;28;20559;-73
2022/12/03 02:45:19;;;;;;;42.67;12.80;;;;;;;-0.79;100.00;95477.72;4995348;28;20055;-73
2022/12/03 02:47:51;;;;;;;42.10;12.68;;;;;;;-0.89;100.00;95484.09;5006378;28;20048;-73
2022/12/03 02:50:22;;;;;;;48.58;12.70;;;;;;;-0.80;100.00;95476.16;5002405;28;20088;-73
2022/12/03 02:52:49;;;;;;;50.20;14.13;;;;;;;-0.84;100.00;95480.91;5007673;28;20423;-73
2022/12/03 02:55:17;;;;;;;50.17;14.63;;;;;;;-0.79;100.00;95478.53;5004631;28;20423;-73
2022/12/03 02:57:45;;;;;;;55.88;15.18;;;;;;;-0.95;100.00;95474.56;4997492;28;20057;-73
2022/12/03 03:00:11;;;;;;;55.13;13.65;;;;;;;-0.94;100.00;95472.75;5005708;28;20042;-72
2022/12/03 03:02:39;;;;;;;45.65;13.65;;;;;;;-0.79;100.00;95475.16;5001600;28;20038;-73
2022/12/03 03:05:06;;;;;;;48.78;14.48;;;;;;;-0.88;100.00;95475.38;5005676;28;20756;-72
2022/12/03 03:07:32;;;;;;;48.30;13.73;;;;;;;-0.86;100.00;95477.75;5007083;28;20920;-73
2022/12/03 03:09:58;;;;;;;58.95;12.82;;;;;;;-0.91;100.00;95480.91;4993263;28;20046;-73
2022/12/03 03:12:24;;;;;;;50.45;15.05;;;;;;;-0.91;100.00;95486.06;5003439;28;20428;-73
2022/12/03 03:14:51;;;;;;;49.97;13.98;;;;;;;-0.96;100.00;95483.28;5010990;28;20042;-71
2022/12/03 03:17:16;;;;;;;55.10;14.20;;;;;;;-0.90;100.00;95482.50;5012976;28;20270;-73
2022/12/03 03:19:42;;;;;;;47.67;14.73;;;;;;;-0.95;100.00;95474.56;5006609;28;20447;-73
2022/12/03 03:22:09;;;;;;;50.83;16.00;;;;;;;-0.93;100.00;95472.56;5004309;28;20093;-73
2022/12/03 03:24:35;;;;;;;51.25;14.73;;;;;;;-0.85;100.00;95473.38;5005257;28;20108;-73
2022/12/03 03:27:01;;;;;;;48.08;15.65;;;;;;;-0.87;100.00;95471.75;4991868;28;20455;-73
2022/12/03 03:29:27;;;;;;;53.22;15.05;;;;;;;-0.85;100.00;95460.44;4997594;28;20125;-73
2022/12/03 03:31:52;;;;;;;49.80;14.93;;;;;;;-0.95;100.00;95469.41;5011325;28;20034;-72
2022/12/03 03:34:18;;;;;;;55.42;15.55;;;;;;;-1.00;100.00;95465.81;5005949;28;20096;-73
2022/12/03 03:36:44;;;;;;;49.63;13.80;;;;;;;-0.89;100.00;95463.44;5004863;28;20049;-72
2022/12/03 03:39:10;;;;;;;49.17;14.93;;;;;;;-0.94;100.00;95465.81;5002488;28;20045;-73
2022/12/03 03:41:37;;;;;;;48.03;14.35;;;;;;;-0.96;100.00;95462.63;5008680;28;20069;-72
2022/12/03 03:44:05;;;;;;;56.97;15.45;;;;;;;-0.95;100.00;95458.25;5002155;28;20438;-72
2022/12/03 03:46:32;;;;;;;55.33;15.48;;;;;;;-0.88;100.00;95465.03;4999261;28;20121;-72
2022/12/03 03:48:58;;;;;;;52.78;15.57;;;;;;;-0.83;100.00;95461.03;4996593;28;20042;-73
2022/12/03 03:51:24;;;;;;;55.95;15.65;;;;;;;-0.94;100.00;95459.84;5009894;28;20042;-72
2022/12/03 03:53:51;;;;;;;53.58;14.80;;;;;;;-1.05;100.00;95463.81;5003623;28;20091;-72
2022/12/03 03:56:18;;;;;;;52.25;14.45;;;;;;;-1.02;100.00;95472.94;4996773;28;20042;-73
2022/12/03 03:58:44;;;;;;;49.58;14.00;;;;;;;-1.01;100.00;95465.00;4990526;28;20050;-73
2022/12/03 04:01:11;;;;;;;49.55;14.95;;;;;;;-1.02;100.00;95453.09;5004489;28;20050;-72
2022/12/03 04:03:37;;;;;;;59.30;14.90;;;;;;;-0.91;100.00;95470.56;5000322;28;20053;-72
2022/12/03 04:06:03;;;;;;;51.03;14.15;;;;;;;-0.96;100.00;95472.16;5004767;28;20041;-73
2022/12/03 04:08:29;;;;;;;47.42;13.50;;;;;;;-1.12;100.00;95463.00;5005861;28;20038;-73
2022/12/03 04:13:38;;;;;;;46.83;15.10;;;;;;;-1.04;100.00;95465.41;4998266;28;20034;-73
2022/12/03 04:16:04;;;;;;;42.60;13.23;;;;;;;-1.04;100.00;95465.41;5003413;28;20042;-73
2022/12/03 04:18:41;;;;;;;49.70;13.85;;;;;;;-1.07;100.00;95465.78;5003214;28;20054;-72
2022/12/03 04:23:52;;;;;;;41.53;12.60;;;;;;;-0.98;100.00;95453.47;5010013;28;20096;-73
2022/12/03 04:29:01;;;;;;;45.95;13.07;;;;;;;-1.05;100.00;95456.06;5003813;28;20041;-72
2022/12/03 04:36:56;;;;;;;50.05;15.63;;;;;;;-1.08;100.00;95464.19;5000414;28;20045;-71
2022/12/03 04:39:22;;;;;;;45.42;12.88;;;;;;;-1.06;100.00;95457.06;4999518;28;20431;-72
2022/12/03 04:41:47;;;;;;;44.70;13.05;;;;;;;-1.06;100.00;95472.56;5003066;28;20048;-73
2022/12/03 04:46:56;;;;;;;43.67;13.53;;;;;;;-0.99;100.00;95475.13;5004455;28;20045;-71
2022/12/03 04:49:22;;;;;;;40.25;12.65;;;;;;;-1.03;100.00;95476.50;4992716;28;20046;-72
2022/12/03 04:51:48;;;;;;;35.25;11.65;;;;;;;-1.13;100.00;95476.91;5022380;28;20056;-72
2022/12/03 04:54:14;;;;;;;52.75;13.30;;;;;;;-1.10;100.00;95471.34;5024746;28;20054;-70
2022/12/03 04:56:39;;;;;;;44.53;13.07;;;;;;;-1.07;100.00;95476.13;4993918;28;20042;-71
2022/12/03 04:59:05;;;;;;;38.50;12.73;;;;;;;-1.15;100.00;95468.56;5003314;28;20546;-71
2022/12/03 05:01:30;;;;;;;41.38;13.05;;;;;;;-1.11;100.00;95475.72;4998786;28;20046;-72
2022/12/03 05:03:56;;;;;;;39.90;11.60;;;;;;;-1.15;100.00;95473.72;5002831;28;20042;-73
2022/12/03 05:06:22;;;;;;;41.63;11.07;;;;;;;-1.18;100.00;95468.97;4995465;28;20050;-73
2022/12/03 05:08:47;;;;;;;45.15;13.30;;;;;;;-1.27;100.00;95466.56;4998354;28;20054;-73
2022/12/03 05:11:13;;;;;;;40.35;12.15;;;;;;;-1.27;100.00;95469.13;4999543;28;20038;-72
2022/12/03 05:13:39;;;;;;;45.08;11.20;;;;;;;-1.18;100.00;95468.97;5009800;28;20569;-73
2022/12/03 05:16:04;;;;;;;44.92;12.52;;;;;;;-1.18;100.00;95468.97;5005957;28;20043;-73
2022/12/03 05:18:30;;;;;;;45.92;13.23;;;;;;;-1.18;100.00;95474.91;5002503;28;20041;-72
2022/12/03 05:20:55;;;;;;;54.10;13.98;;;;;;;-1.25;100.00;95469.75;5012096;28;20034;-73
2022/12/03 05:23:21;;;;;;;38.10;11.38;;;;;;;-1.23;100.00;95472.13;5004738;28;20476;-72
2022/12/03 05:25:47;;;;;;;41.78;11.75;;;;;;;-1.30;100.00;95466.94;5006962;28;20043;-73
2022/12/03 05:28:12;;;;;;;47.53;12.93;;;;;;;-1.28;100.00;95475.31;5000073;28;20046;-72
2022/12/03 05:30:38;;;;;;;42.20;12.57;;;;;;;-1.29;100.00;95473.72;5003888;28;20039;-73
2022/12/03 05:33:03;;;;;;;48.53;13.43;;;;;;;-1.31;100.00;95480.84;4999751;28;20042;-73
2022/12/03 05:35:29;;;;;;;44.80;13.23;;;;;;;-1.25;100.00;95474.91;5009119;28;20049;-73
2022/12/03 05:37:54;;;;;;;42.80;12.48;;;;;;;-1.25;100.00;95480.06;5004033;28;20074;-72
2022/12/03 05:40:20;;;;;;;44.28;12.63;;;;;;;-1.22;100.00;95474.50;5005390;28;20424;-73
2022/12/03 05:42:55;;;;;;;50.97;13.38;;;;;;;-1.13;100.00;95476.91;5010027;28;20492;-73
2022/12/03 05:45:22;;;;;;;51.20;13.18;;;;;;;-1.14;100.00;95483.06;5003598;28;20081;-73
2022/12/03 05:47:48;;;;;;;46.55;12.68;;;;;;;-1.04;100.00;95486.06;5000640;28;20041;-73
2022/12/03 05:50:14;;;;;;;47.40;11.85;;;;;;;-1.13;100.00;95488.03;5006195;28;20109;-73
2022/12/03 05:52:39;;;;;;;56.45;14.27;;;;;;;-1.11;100.00;95490.41;5012038;28;20049;-73
2022/12/03 05:55:06;;;;;;;55.95;14.40;;;;;;;-1.12;100.00;95491.41;5005216;28;20061;-72
2022/12/03 05:57:32;;;;;;;54.55;13.07;;;;;;;-1.16;100.00;95503.16;5000793;28;20092;-73
2022/12/03 05:59:57;;;;;;;55.10;13.43;;;;;;;-1.17;100.00;95491.22;5000400;28;20046;-73
2022/12/03 06:02:23;;;;;;;51.47;13.05;;;;;;;-1.14;100.00;95490.81;5002684;28;20042;-73
2022/12/03 06:04:49;;;;;;;48.55;14.50;;;;;;;-1.15;100.00;95486.63;5004599;28;20049;-73
2022/12/03 06:07:14;;;;;;;47.63;13.43;;;;;;;-1.18;100.00;95487.03;5001931;28;20401;-73
2022/12/03 06:09:40;;;;;;;58.95;14.90;;;;;;;-1.08;100.00;95479.69;4997782;28;20085;-73
2022/12/03 06:12:07;;;;;;;41.15;12.57;;;;;;;-1.08;100.00;95483.09;4993169;28;20181;-73
2022/12/03 06:14:34;;;;;;;47.65;13.93;;;;;;;-1.11;100.00;95480.09;5005520;28;20407;-73
2022/12/03 06:17:00;;;;;;;54.03;15.32;;;;;;;-1.08;100.00;95474.53;5002385;28;20038;-73
2022/12/03 06:19:26;;;;;;;51.45;15.13;;;;;;;-1.06;100.00;95477.72;5003980;28;20042;-73
2022/12/03 06:21:51;;;;;;;53.08;14.05;;;;;;;-1.02;100.00;95473.75;4993277;28;20117;-72
2022/12/03 06:24:17;;;;;;;56.28;15.05;;;;;;;-1.13;100.00;95467.38;5007111;28;20498;-73
2022/12/03 06:26:42;;;;;;;44.00;14.30;;;;;;;-1.03;100.00;95469.59;5009076;28;20044;-73
2022/12/03 06:29:08;;;;;;;62.88;15.35;;;;;;;-1.07;100.00;95470.97;5010335;28;20443;-72
2022/12/03 06:31:34;;;;;;;50.85;14.65;;;;;;;-0.98;100.00;95469.75;4999804;28;20047;-73
2022/12/03 06:33:59;;;;;;;53.33;15.38;;;;;;;-1.00;100.00;95471.75;5003961;28;20104;-72
2022/12/03 06:36:26;;;;;;;54.83;14.02;;;;;;;-0.92;100.00;95474.16;5002729;28;20515;-73
2022/12/03 06:38:52;;;;;;;47.08;15.20;;;;;;;-0.99;100.00;95478.53;5000199;28;20035;-72
2022/12/03 06:41:18;;;;;;;53.78;15.75;;;;;;;-1.01;100.00;95479.72;5000349;28;20053;-73
2022/12/03 06:43:44;;;;;;;58.30;15.32;;;;;;;-1.00;100.00;95476.94;5006167;28;20053;-72
2022/12/03 06:46:09;;;;;;;45.25;13.52;;;;;;;-1.01;100.00;95470.16;5005243;28;20049;-73
2022/12/03 06:48:35;;;;;;;55.67;14.77;;;;;;;-0.99;100.00;95472.53;5001836;28;20046;-73
2022/12/03 06:51:00;;;;;;;49.97;15.38;;;;;;;-1.02;100.00;95463.44;5004130;28;20046;-73
2022/12/03 06:53:26;;;;;;;60.42;15.25;;;;;;;-1.00;100.00;95466.59;4996942;28;20047;-72
2022/12/03 06:55:52;;;;;;;70.10;16.27;;;;;;;-1.03;100.00;95467.00;4999794;28;20134;-73
2022/12/03 06:58:17;;;;;;;53.17;14.10;;;;;;;-0.90;100.00;95469.59;5008912;28;20084;-73
2022/12/03 07:00:43;;;;;;;57.10;15.93;;;;;;;-1.05;100.00;95468.97;5004567;28;20117;-71
2022/12/03 07:03:08;;;;;;;55.45;15.35;;;;;;;-0.95;100.00;95459.06;5010041;28;20053;-72
2022/12/03 07:05:34;;;;;;;53.90;15.70;;;;;;;-1.02;100.00;95463.44;4997716;28;20038;-73
2022/12/03 07:07:59;;;;;;;54.53;16.15;;;;;;;-0.99;100.00;95463.03;4998907;28;20041;-73
2022/12/03 07:10:25;;;;;;;55.03;15.02;;;;;;;-1.09;100.00;95453.09;5002232;28;20441;-73
2022/12/03 07:12:50;;;;;;;59.97;15.88;;;;;;;-0.97;100.00;95471.38;4998711;28;20455;-72
2022/12/03 07:15:16;;;;;;;51.53;16.60;;;;;;;-0.98;100.00;95464.59;4998543;28;20043;-73
2022/12/03 07:17:41;;;;;;;56.30;15.05;;;;;;;-0.95;100.00;95474.56;5003513;28;20065;-73
2022/12/03 07:20:08;;;;;;;52.42;14.98;;;;;;;-0.93;100.00;95477.72;5009228;28;20042;-73
2022/12/03 07:22:34;;;;;;;49.45;14.75;;;;;;;-1.01;100.00;95470.16;5005209;28;20042;-73
2022/12/03 07:24:59;;;;;;;51.67;15.20;;;;;;;-1.02;100.00;95473.75;4996084;28;20058;-73
2022/12/03 07:27:25;;;;;;;45.38;14.32;;;;;;;-1.00;100.00;95469.19;5007654;28;20046;-73
2022/12/03 07:29:50;;;;;;;64.40;15.85;;;;;;;-0.94;100.00;95470.97;5003197;28;20044;-73
2022/12/03 07:32:16;;;;;;;51.65;14.75;;;;;;;-1.00;100.00;95471.75;5001929;28;20045;-73
2022/12/03 07:34:41;;;;;;;52.65;15.50;;;;;;;-1.03;100.00;95467.00;4999369;28;20065;-72
2022/12/03 07:37:07;;;;;;;52.78;14.35;;;;;;;-0.99;100.00;95463.03;4996950;28;20504;-71
2022/12/03 07:39:32;;;;;;;51.22;14.48;;;;;;;-0.93;100.00;95462.22;5005623;28;20061;-72
2022/12/03 07:41:58;;;;;;;52.47;15.27;;;;;;;-1.01;100.00;95470.16;5009025;28;20038;-72
2022/12/03 07:44:23;;;;;;;59.72;15.38;;;;;;;-0.95;100.00;95479.72;5004459;28;20070;-70
2022/12/03 07:46:49;;;;;;;60.25;15.23;;;;;;;-0.97;100.00;95476.53;5010762;28;20041;-71
2022/12/03 07:49:15;;;;;;;58.55;15.00;;;;;;;-0.85;100.00;95473.38;4998210;28;20041;-71
2022/12/03 07:51:41;;;;;;;58.30;16.58;;;;;;;-0.89;100.00;95476.34;5000418;28;20038;-74
2022/12/03 07:54:07;;;;;;;65.35;15.20;;;;;;;-0.90;100.00;95477.34;5004481;28;20116;-74
2022/12/03 07:56:33;;;;;;;46.95;13.55;;;;;;;-0.90;100.00;95477.34;4999137;28;20034;-74
2022/12/03 07:58:59;;;;;;;55.60;14.65;;;;;;;-0.94;100.00;95470.97;4996166;28;20046;-73
2022/12/03 08:01:24;;;;;;;55.15;14.90;;;;;;;-0.92;100.00;95458.66;5001727;28;20045;-73
2022/12/03 08:03:50;;;;;;;53.35;13.73;;;;;;;-0.89;100.00;95463.44;5002548;28;20041;-71
2022/12/03 08:06:15;;;;;;;56.15;14.70;;;;;;;-0.91;100.00;95465.41;4995662;28;20046;-70
2022/12/03 08:08:42;;;;;;;63.28;15.45;;;;;;;-0.85;100.00;95468.97;5000773;28;20041;-70
2022/12/03 08:11:13;;;;;;;55.13;15.38;;;;;;;-0.89;100.00;95468.59;4999163;28;20080;-73
2022/12/03 08:13:39;;;;;;;59.78;15.52;;;;;;;-0.91;100.00;95470.56;5002315;28;20046;-72
2022/12/03 08:16:14;;;;;;;56.67;15.85;;;;;;;-0.84;100.00;95465.41;5007779;28;20108;-73
2022/12/03 08:18:40;;;;;;;61.20;16.90;;;;;;;-0.85;100.00;95473.38;5003900;28;20104;-73
2022/12/03 08:21:10;;;;;;;49.63;12.63;;;;;;;-0.95;100.00;95464.22;5001060;28;20503;-73
2022/12/03 08:23:35;;;;;;;56.90;17.08;;;;;;;-0.87;100.00;95458.84;4994008;28;20072;-73
2022/12/03 08:26:02;;;;;;;59.72;15.45;;;;;;;-0.96;100.00;95460.03;5004126;28;20500;-72
2022/12/03 08:28:29;;;;;;;56.72;14.45;;;;;;;-0.96;100.00;95457.47;5006525;28;20034;-73
2022/12/03 08:31:06;;;;;;;52.78;14.20;;;;;;;-0.93;100.00;95462.22;5002691;28;20455;-72
2022/12/03 08:33:34;;;;;;;52.95;15.00;;;;;;;-0.89;100.00;95468.59;5000063;28;20045;-74
2022/12/03 08:36:06;;;;;;;65.10;16.65;;;;;;;-0.88;100.00;95454.69;5008397;28;20408;-73
2022/12/03 08:38:32;;;;;;;49.50;14.30;;;;;;;-0.89;100.00;95465.19;5005451;28;20183;-72
2022/12/03 08:40:58;;;;;;;51.42;15.82;;;;;;;-0.81;100.00;95464.22;5007642;28;20499;-74
2022/12/03 08:43:25;;;;;;;48.15;15.63;;;;;;;-0.82;100.00;95470.38;5006885;28;20038;-74
2022/12/03 08:45:56;;;;;;;41.80;13.38;;;;;;;-0.92;100.00;95469.00;5009684;28;20034;-73
2022/12/03 08:48:33;;;;;;;52.72;15.57;;;;;;;-0.77;100.00;95465.44;5006723;28;20042;-73
2022/12/03 08:51:03;;;;;;;48.78;15.52;;;;;;;-0.83;100.00;95471.38;5011812;28;20042;-74
2022/12/03 08:53:41;;;;;;;59.72;15.52;;;;;;;-0.79;100.00;95469.97;5007252;28;20045;-71
2022/12/03 08:56:10;;;;;;;52.97;15.27;;;;;;;-0.80;100.00;95476.16;5003247;28;20050;-73
2022/12/03 08:58:40;;;;;;;57.35;15.20;;;;;;;-0.84;100.00;95469.78;5009538;28;20045;-71
2022/12/03 09:01:11;;;;;;;61.33;15.85;;;;;;;-0.83;100.00;95468.78;4997904;28;20042;-70
2022/12/03 09:03:48;;;;;;;54.25;15.32;;;;;;;-0.83;100.00;95473.94;5000891;28;20057;-72
2022/12/03 09:06:13;;;;;;;53.10;14.93;;;;;;;-0.87;100.00;95466.59;4994560;28;20128;-71
2022/12/03 09:08:39;;;;;;;59.65;15.48;;;;;;;-0.78;100.00;95463.81;5009975;28;20533;-70
2022/12/03 09:11:04;;;;;;;46.75;13.75;;;;;;;-0.76;100.00;95459.25;5001051;28;20046;-70
2022/12/03 09:13:30;;;;;;;66.50;15.48;;;;;;;-0.74;100.00;95454.69;5004606;28;20519;-70
2022/12/03 09:15:55;;;;;;;50.53;15.25;;;;;;;-0.74;100.00;95462.44;5005488;28;20049;-70
2022/12/03 09:18:21;;;;;;;58.20;15.43;;;;;;;-0.69;100.00;95467.78;5000911;28;20042;-73
2022/12/03 09:20:46;;;;;;;50.08;15.48;;;;;;;-0.67;100.00;95483.91;5005438;28;20042;-71
2022/12/03 09:23:12;;;;;;;59.92;16.75;;;;;;;-0.70;100.00;95481.72;5009587;28;20514;-70
2022/12/03 09:25:37;;;;;;;53.63;16.30;;;;;;;-0.74;100.00;95470.19;5006686;28;20057;-72
2022/12/03 09:28:03;;;;;;;51.42;15.32;;;;;;;-0.68;100.00;95469.38;5006250;28;20458;-71
2022/12/03 09:30:28;;;;;;;53.78;15.43;;;;;;;-0.63;100.00;95467.00;5010377;28;20049;-70
2022/12/03 09:32:54;;;;;;;57.72;16.63;;;;;;;-0.70;100.00;95466.22;5007919;28;20121;-70
2022/12/03 09:35:19;;;;;;;49.72;14.85;;;;;;;-0.70;100.00;95466.22;4997902;28;20059;-71
2022/12/03 09:37:45;;;;;;;45.88;13.98;;;;;;;-0.68;100.00;95464.22;4999537;28;20046;-70
2022/12/03 09:40:11;;;;;;;57.22;15.73;;;;;;;-0.66;100.00;95462.25;5004172;28;20092;-71
2022/12/03 09:42:37;;;;;;;48.80;14.65;;;;;;;-0.63;100.00;95464.44;5005641;28;20389;-70
2022/12/03 09:45:09;;;;;;;48.67;13.98;;;;;;;-0.68;100.00;95464.22;5010558;28;20045;-70
2022/12/03 09:47:36;;;;;;;51.55;15.02;;;;;;;-0.76;100.00;95456.66;5000549;28;20045;-70
2022/12/03 09:50:03;;;;;;;40.67;13.43;;;;;;;-0.76;100.00;95451.50;5003482;28;20042;-71
2022/12/03 09:52:32;;;;;;;44.53;13.52;;;;;;;-0.83;100.00;95446.34;5007926;28;20042;-70
2022/12/03 09:55:02;;;;;;;44.35;13.98;;;;;;;-0.69;100.00;95441.94;5002761;28;20123;-70
2022/12/03 09:57:29;;;;;;;42.83;13.18;;;;;;;-0.68;100.00;95448.72;4994432;28;20515;-71
2022/12/03 09:59:55;;;;;;;43.28;13.77;;;;;;;-0.65;100.00;95439.78;4993471;28;20042;-71
2022/12/03 10:02:26;;;;;;;48.50;13.75;;;;;;;-0.66;100.00;95426.06;5004441;28;20074;-70
2022/12/03 10:04:52;;;;;;;40.90;13.30;;;;;;;-0.61;100.00;95422.88;5000464;28;20046;-72
2022/12/03 10:07:18;;;;;;;56.50;14.68;;;;;;;-0.78;100.00;95432.81;5002233;28;20038;-73
2022/12/03 10:09:44;;;;;;;43.85;12.90;;;;;;;-0.82;100.00;95419.50;5012347;28;20067;-75
2022/12/03 10:12:13;;;;;;;45.97;14.20;;;;;;;-0.73;100.00;95414.94;5011505;28;20061;-71
2022/12/03 10:14:40;;;;;;;46.47;14.50;;;;;;;-0.57;100.00;95426.66;5007155;28;20574;-71
2022/12/03 10:17:06;;;;;;;45.35;14.45;;;;;;;-0.48;100.00;95427.22;5000544;28;20095;-71
2022/12/03 10:19:34;;;;;;;44.83;13.95;;;;;;;-0.44;100.00;95423.25;5009565;28;20495;-71
2022/12/03 10:22:00;;;;;;;39.65;13.95;;;;;;;-0.47;100.00;95413.31;5010988;28;20034;-71
2022/12/03 10:24:34;;;;;;;44.22;14.80;;;;;;;-0.47;100.00;95408.94;5008344;28;20050;-71
2022/12/03 10:27:18;;;;;;;38.85;13.57;;;;;;;-0.56;100.00;95410.94;4999406;28;20042;-71
2022/12/03 10:29:52;;;;;;;50.55;15.25;;;;;;;-0.39;100.00;95406.13;5010450;28;20444;-71
2022/12/03 10:32:37;;;;;;;45.30;13.88;;;;;;;-0.47;100.00;95402.97;5004845;28;20504;-72
2022/12/03 10:35:09;;;;;;;52.55;13.90;;;;;;;-0.38;100.00;95397.34;5003951;28;20074;-72
2022/12/03 10:37:35;;;;;;;42.03;13.57;;;;;;;-0.53;100.00;95400.19;5003410;28;20046;-72
2022/12/03 10:40:07;;;;;;;34.35;12.90;;;;;;;-0.46;100.00;95405.34;5014094;28;20419;-72
2022/12/03 10:42:35;;;;;;;43.25;13.13;;;;;;;-0.40;100.00;95398.59;4994847;28;20097;-73
2022/12/03 10:45:11;;;;;;;49.05;12.98;;;;;;;-0.42;100.00;95401.34;5007348;28;20042;-73
2022/12/03 10:47:36;;;;;;;42.38;12.93;;;;;;;-0.42;100.00;95400.56;5000561;28;20049;-73
2022/12/03 10:50:05;;;;;;;53.72;14.60;;;;;;;-0.43;100.00;95384.25;5006250;28;20467;-71
2022/12/03 10:52:31;;;;;;;46.22;13.40;;;;;;;-0.50;100.00;95377.50;5010646;28;20038;-72
2022/12/03 10:54:56;;;;;;;44.17;13.02;;;;;;;-0.54;100.00;95385.66;5006113;28;20044;-74
2022/12/03 10:57:23;;;;;;;44.30;12.63;;;;;;;-0.60;100.00;95378.72;5007317;28;20062;-69
2022/12/03 10:59:48;;;;;;;47.35;13.02;;;;;;;-0.43;100.00;95384.25;5002252;28;20034;-72
2022/12/03 11:02:20;;;;;;;39.58;12.90;;;;;;;-0.37;100.00;95367.94;4995514;28;20519;-70
2022/12/03 11:04:46;;;;;;;32.75;11.50;;;;;;;-0.61;100.00;95374.53;5008480;28;20053;-74
2022/12/03 11:07:15;;;;;;;43.72;12.93;;;;;;;-0.43;100.00;95367.94;5007120;28;20096;-69
2022/12/03 11:09:43;;;;;;;45.95;12.93;;;;;;;-0.35;100.00;95370.31;5007744;28;20385;-69
2022/12/03 11:12:19;;;;;;;53.10;13.05;;;;;;;-0.55;100.00;95366.00;5008864;28;20054;-68
2022/12/03 11:14:47;;;;;;;45.33;13.65;;;;;;;-0.37;100.00;95372.31;5003106;28;20049;-68
2022/12/03 11:17:49;;;;;;;49.70;15.32;;;;;;;-0.55;100.00;95370.34;5002784;28;20386;-69
2022/12/03 11:20:24;;;;;;;46.72;13.98;;;;;;;-0.50;100.00;95372.31;5003558;28;20121;-69
2022/12/03 11:22:51;;;;;;;48.03;12.90;;;;;;;-0.47;100.00;95377.13;5001632;28;20416;-70
2022/12/03 11:25:25;;;;;;;44.85;13.60;;;;;;;-0.57;100.00;95373.16;4991711;28;20518;-70
2022/12/03 11:28:13;;;;;;;50.83;13.68;;;;;;;-0.55;100.00;95381.50;5000546;28;20034;-69